Costa Favolosa — ICPK — position and weather

sailwx.info

Track history (hours):
 
Tides and Currents Weather Stations Pressure Air Temp Water Temp Dewpoint Dewpoint Depression Visibility Wind Speed Wind Dir Waves Ship Positions

Costa Favolosa

Last reported at 2018-Nov-11 02:32 UTC. Time now 2018-Nov-13 07:30 UTC.
Position N 43°33' E 007°46'.

Length 291 m; draft 8.3 m.

Type: Ship. MMSI: 247311100.

Date/timePositionNaut miles runAvg speedWind from/ knotsBaromVisibWave heightAir tempDewpointWater temp
2018-Nov-11 02:32N 43°33' E 007°46'1020.7
2018-Nov-11 02:02N 43°26' E 007°35'1020.7
2018-Nov-11 01:32N 43°19' E 007°24'1020.8
2018-Nov-11 01:02N 43°12' E 007°13'1121.1
2018-Nov-11 00:32N 43°05' E 007°03'1121.0
2018-Nov-11 00:02N 42°58' E 006°52'20221.5
2018-Nov-10 14:40N 41°27' E 002°49'321.1
2018-Nov-10 14:32N 41°26' E 002°45'1021.2
2018-Nov-10 14:03N 41°21' E 002°33'1020.9
2018-Nov-10 13:33N 41°17' E 002°20'714.2
2018-Nov-10 13:02N 41°17' E 002°11'5 9.1
2018-Nov-10 12:32N 41°21' E 002°10'0 0.0
2018-Nov-10 12:02N 41°21' E 002°10'0 0.0
2018-Nov-10 11:32N 41°21' E 002°10'0 0.0
2018-Nov-10 11:02N 41°21' E 002°10'0 0.0
2018-Nov-10 10:32N 41°21' E 002°10'0 0.0
2018-Nov-10 10:03N 41°21' E 002°10'0 0.0
2018-Nov-10 09:32N 41°21' E 002°10'0 0.0
2018-Nov-10 09:02N 41°21' E 002°10'0 0.0
2018-Nov-10 08:31N 41°21' E 002°10'0 0.0
2018-Nov-10 07:58N 41°21' E 002°10'0 0.0
2018-Nov-10 07:31N 41°21' E 002°10'0 0.0
2018-Nov-10 07:01N 41°21' E 002°10'0 0.0
2018-Nov-10 06:33N 41°21' E 002°10'0 1.0
2018-Nov-10 06:02N 41°21' E 002°10'3 5.1
2018-Nov-10 05:32N 41°18' E 002°11'612.4
2018-Nov-10 05:02N 41°12' E 002°12'815.4
2018-Nov-10 04:32N 41°06' E 002°06'918.3
2018-Nov-10 04:02N 40°59' E 001°59'918.6
2018-Nov-10 03:32N 40°51' E 001°52'11914.3
2018-Nov-09 19:10N 39°30' W 000°03'213.6
2018-Nov-09 19:00N 39°29' W 000°06'613.5
2018-Nov-09 18:32N 39°27' W 000°13'4 7.3
2018-Nov-09 18:01N 39°27' W 000°18'0 0.2
2018-Nov-09 17:30N 39°28' W 000°18'0 0.0
2018-Nov-09 17:00N 39°28' W 000°18'0 0.0
2018-Nov-09 16:30N 39°28' W 000°18'0 0.0
2018-Nov-09 16:00N 39°28' W 000°18'0 0.0
2018-Nov-09 15:30N 39°28' W 000°18'0 0.0
2018-Nov-09 15:00N 39°28' W 000°18'0 0.0
2018-Nov-09 14:30N 39°28' W 000°18'0 0.0
2018-Nov-09 14:00N 39°28' W 000°18'0 0.0
2018-Nov-09 13:32N 39°28' W 000°18'0 0.0
2018-Nov-09 13:00N 39°28' W 000°18'0 0.0
2018-Nov-09 12:30N 39°28' W 000°18'0 0.0
2018-Nov-09 12:02N 39°28' W 000°18'0 0.0
2018-Nov-09 11:32N 39°28' W 000°18'0 0.0
2018-Nov-09 11:02N 39°28' W 000°18'0 0.1
2018-Nov-09 10:32N 39°27' W 000°18'1 1.4
2018-Nov-09 10:02N 39°27' W 000°18'3 5.7
2018-Nov-09 09:32N 39°25' W 000°15'8211.4
2018-Nov-09 02:22N 38°03' W 000°04'614.3
2018-Nov-09 01:57N 37°59' W 000°09'614.1
2018-Nov-09 01:32N 37°54' W 000°13'814.0
2018-Nov-09 00:59N 37°48' W 000°19'614.2
2018-Nov-09 00:32N 37°42' W 000°23'714.3
2018-Nov-09 00:02N 37°36' W 000°28'814.5
2018-Nov-08 23:31N 37°31' W 000°34'714.5
2018-Nov-08 23:02N 37°26' W 000°41'714.4
2018-Nov-08 22:32N 37°21' W 000°48'1214.3
2018-Nov-08 21:43N 37°14' W 000°59'314.3
2018-Nov-08 21:32N 37°12' W 001°01'40715.0
2018-Nov-07 18:25N 37°33' W 009°33'718.3
2018-Nov-07 18:02N 37°40' W 009°32'918.4
2018-Nov-07 17:32N 37°49' W 009°30'918.4
2018-Nov-07 17:02N 37°58' W 009°29'918.2
2018-Nov-07 16:32N 38°07' W 009°29'917.9
2018-Nov-07 16:03N 38°16' W 009°28'917.3
2018-Nov-07 15:32N 38°25' W 009°27'816.7
2018-Nov-07 15:02N 38°33' W 009°26'815.7
2018-Nov-07 14:32N 38°39' W 009°20'612.5
2018-Nov-07 14:02N 38°41' W 009°12'4 8.4
2018-Nov-07 13:32N 38°43' W 009°07'0 0.2
2018-Nov-07 13:00N 38°43' W 009°07'0 0.0
2018-Nov-07 12:32N 38°43' W 009°07'0 0.0
2018-Nov-07 12:02N 38°43' W 009°07'0 0.0
2018-Nov-07 11:33N 38°43' W 009°07'0 0.0
2018-Nov-07 11:00N 38°43' W 009°07'0 0.0
2018-Nov-07 10:31N 38°43' W 009°07'0 0.0
2018-Nov-07 10:02N 38°43' W 009°07'0 0.0
2018-Nov-07 09:32N 38°43' W 009°07'0 0.0
2018-Nov-07 09:02N 38°43' W 009°07'0 0.0
2018-Nov-07 08:32N 38°43' W 009°07'0 0.0
2018-Nov-07 08:02N 38°43' W 009°07'0 0.0
2018-Nov-07 07:31N 38°43' W 009°07'0 0.0
2018-Nov-07 07:01N 38°43' W 009°07'0 0.0
2018-Nov-07 06:30N 38°43' W 009°07'0 0.0
2018-Nov-07 05:59N 38°43' W 009°07'0 0.0
2018-Nov-07 05:31N 38°43' W 009°07'0 0.0
2018-Nov-07 05:02N 38°43' W 009°07'0 0.0
2018-Nov-07 04:30N 38°43' W 009°07'0 0.0
2018-Nov-06 23:29N 38°43' W 009°07'0 0.0
2018-Nov-06 23:00N 38°43' W 009°07'0 0.0
2018-Nov-06 22:00N 38°43' W 009°07'0 0.0
2018-Nov-06 21:30N 38°43' W 009°07'0 0.0
2018-Nov-06 21:03N 38°43' W 009°07'0 0.0
2018-Nov-06 21:00N 38°43' W 009°07'0 0.0
2018-Nov-06 20:29N 38°43' W 009°07'0 0.0
2018-Nov-06 20:01N 38°43' W 009°07'0 0.0
2018-Nov-06 19:55N 38°43' W 009°07'0 0.0
2018-Nov-06 19:27N 38°43' W 009°07'0 0.3
2018-Nov-06 19:03N 38°43' W 009°07'0 1.8
2018-Nov-06 18:59N 38°43' W 009°07'0 0.0
2018-Nov-06 18:30N 38°43' W 009°07'0 0.0
2018-Nov-06 18:01N 38°43' W 009°07'0 0.0
2018-Nov-06 17:58N 38°43' W 009°07'0 0.0
2018-Nov-06 17:30N 38°43' W 009°07'0 0.0
2018-Nov-06 17:02N 38°43' W 009°07'0 0.0
2018-Nov-06 16:59N 38°43' W 009°07'0 0.0
2018-Nov-06 16:30N 38°43' W 009°07'0 0.0
2018-Nov-06 16:00N 38°43' W 009°07'0 0.0
2018-Nov-06 15:30N 38°43' W 009°07'0 0.0
2018-Nov-06 15:02N 38°43' W 009°07'0 0.0
2018-Nov-06 14:59N 38°43' W 009°07'0 0.0
2018-Nov-06 14:29N 38°43' W 009°07'0 0.0
2018-Nov-06 14:02N 38°43' W 009°07'0 0.0
2018-Nov-06 13:59N 38°43' W 009°07'0 0.0
2018-Nov-06 13:29N 38°43' W 009°07'0 0.0
2018-Nov-06 13:01N 38°43' W 009°07'0 0.0
2018-Nov-06 12:58N 38°43' W 009°07'0 0.0
2018-Nov-06 12:29N 38°43' W 009°07'0 0.0
2018-Nov-06 12:02N 38°43' W 009°07'0 0.0
2018-Nov-06 11:59N 38°43' W 009°07'0 0.0
2018-Nov-06 11:28N 38°43' W 009°07'0 0.0
2018-Nov-06 11:01N 38°43' W 009°07'0 0.0
2018-Nov-06 10:58N 38°43' W 009°07'0 0.0
2018-Nov-06 10:28N 38°43' W 009°07'0 0.0
2018-Nov-06 10:03N 38°43' W 009°07'0 0.0
2018-Nov-06 10:00N 38°43' W 009°07'0 0.0
2018-Nov-06 09:29N 38°43' W 009°07'0 0.0
2018-Nov-06 09:03N 38°43' W 009°07'0 0.0
2018-Nov-06 09:00N 38°43' W 009°07'0 0.4
2018-Nov-06 08:30N 38°43' W 009°07'3 6.7
2018-Nov-06 08:03N 38°41' W 009°11'0 9.6
2018-Nov-06 08:00N 38°41' W 009°11'4 8.0
2018-Nov-06 07:30N 38°41' W 009°16'510.2
2018-Nov-06 07:03N 38°38' W 009°21'112.1
2018-Nov-06 07:00N 38°38' W 009°22'714.3
2018-Nov-06 06:31N 38°31' W 009°23'817.3
2018-Nov-06 06:03N 38°23' W 009°22'117.2
2018-Nov-06 06:01N 38°22' W 009°22'917.1
2018-Nov-06 05:31N 38°14' W 009°21'817.3
2018-Nov-06 05:03N 38°06' W 009°21'118.0
2018-Nov-06 05:01N 38°05' W 009°21'917.6
2018-Nov-06 04:31N 37°56' W 009°21'817.7
2018-Nov-06 04:03N 37°48' W 009°21'117.7
2018-Nov-06 04:01N 37°47' W 009°21'917.5
2018-Nov-06 03:29N 37°38' W 009°21'817.6
2018-Nov-06 03:02N 37°30' W 009°21'117.9
2018-Nov-06 02:59N 37°29' W 009°21'15116.4
2018-Nov-05 17:47N 36°34' W 006°25'616.0
2018-Nov-05 17:24N 36°33' W 006°17'1 3.7
2018-Nov-05 17:03N 36°32' W 006°17'0 0.1
2018-Nov-05 16:54N 36°32' W 006°17'0 0.0
2018-Nov-05 15:43N 36°32' W 006°17'0 0.0
2018-Nov-05 14:56N 36°32' W 006°17'0 0.0
2018-Nov-05 13:42N 36°32' W 006°17'0 0.0
2018-Nov-05 12:43N 36°32' W 006°17'0 0.0
2018-Nov-05 12:29N 36°32' W 006°17'0 0.0
2018-Nov-05 11:29N 36°32' W 006°17'0 0.0
2018-Nov-05 10:04N 36°32' W 006°17'0 0.0
2018-Nov-05 06:33N 36°32' W 006°17'0 0.0
2018-Nov-05 06:29N 36°32' W 006°17'0 0.7
2018-Nov-05 06:01N 36°32' W 006°17'0 2.0
2018-Nov-05 05:55N 36°32' W 006°17'3 5.3
2018-Nov-05 05:16N 36°33' W 006°21'415.7
2018-Nov-05 04:59N 36°31' W 006°26'265 7.3
2018-Nov-03 16:50N 37°14' W 000°59'619.9
2018-Nov-03 16:30N 37°18' W 000°53'919.4
2018-Nov-03 16:04N 37°25' W 000°46'119.2
2018-Nov-03 16:00N 37°25' W 000°45'1019.8
2018-Nov-03 15:30N 37°32' W 000°36'919.8
2018-Nov-03 15:03N 37°39' W 000°29'119.1
2018-Nov-03 15:00N 37°40' W 000°28'43119.2
2018-Nov-02 16:30N 43°21' E 005°19'1 2.1
2018-Nov-02 16:02N 43°21' E 005°20'0 0.0
2018-Nov-02 15:58N 43°21' E 005°20'0 0.0
2018-Nov-02 13:13N 43°21' E 005°20'0 0.0
2018-Nov-02 08:07N 43°21' E 005°20'0 0.0
2018-Nov-02 08:03N 43°21' E 005°20'0 0.1
2018-Nov-02 08:00N 43°21' E 005°20'1 1.0
2018-Nov-02 07:29N 43°21' E 005°19'3 7.7
2018-Nov-02 07:03N 43°19' E 005°15'0 7.5
2018-Nov-02 07:00N 43°19' E 005°15'4 8.4
2018-Nov-02 06:30N 43°16' E 005°11'612.8
2018-Nov-02 06:03N 43°10' E 005°10'112.8
2018-Nov-02 06:00N 43°10' E 005°09'7112.6
2018-Nov-02 00:24N 42°55' E 006°44'1014.4
2018-Nov-01 23:41N 43°01' E 006°55'314.4
2018-Nov-01 23:30N 43°03' E 006°58'714.2
2018-Nov-01 23:01N 43°07' E 007°05'014.1
2018-Nov-01 23:01N 43°08' E 007°05'714.0
2018-Nov-01 22:31N 43°12' E 007°12'614.2
2018-Nov-01 22:04N 43°16' E 007°19'114.1
2018-Nov-01 22:01N 43°17' E 007°20'714.1
2018-Nov-01 21:30N 43°21' E 007°27'614.2
2018-Nov-01 21:04N 43°26' E 007°34'114.5
2018-Nov-01 21:00N 43°26' E 007°34'714.5
2018-Nov-01 20:31N 43°31' E 007°42'715.1
2018-Nov-01 20:03N 43°35' E 007°49'115.1
2018-Nov-01 20:00N 43°36' E 007°50'815.5
2018-Nov-01 19:31N 43°41' E 007°58'715.4
2018-Nov-01 19:04N 43°45' E 008°05'115.4
2018-Nov-01 19:01N 43°46' E 008°06'815.4
2018-Nov-01 18:30N 43°51' E 008°14'715.3
2018-Nov-01 18:03N 43°56' E 008°20'115.6
2018-Nov-01 18:00N 43°57' E 008°21'715.1
2018-Nov-01 17:31N 44°03' E 008°26'614.3
2018-Nov-01 17:03N 44°09' E 008°30'114.0
2018-Nov-01 17:00N 44°10' E 008°31'713.0
2018-Nov-01 16:30N 44°16' E 008°33'4 8.3
2018-Nov-01 16:03N 44°19' E 008°30'0 3.7
2018-Nov-01 16:00N 44°19' E 008°29'0 0.2
2018-Nov-01 15:30N 44°19' E 008°29'0 0.0
2018-Nov-01 15:03N 44°19' E 008°29'0 0.0
2018-Nov-01 15:00N 44°19' E 008°29'0 0.0
2018-Nov-01 14:02N 44°19' E 008°29'0 0.0
2018-Nov-01 13:59N 44°19' E 008°29'0 0.0
2018-Nov-01 13:27N 44°19' E 008°29'0 0.0
2018-Nov-01 13:02N 44°19' E 008°29'0 0.0
2018-Nov-01 12:59N 44°19' E 008°29'0 0.0
2018-Nov-01 12:30N 44°19' E 008°29'0 0.0
2018-Nov-01 12:01N 44°19' E 008°29'0 0.0
2018-Nov-01 11:58N 44°19' E 008°29'0 0.0
2018-Nov-01 11:28N 44°19' E 008°29'0 0.0
2018-Nov-01 11:01N 44°19' E 008°29'0 0.0
2018-Nov-01 10:58N 44°19' E 008°29'0 0.0
2018-Nov-01 10:28N 44°19' E 008°29'0 0.0
2018-Nov-01 10:02N 44°19' E 008°29'0 0.0
2018-Nov-01 09:59N 44°19' E 008°29'0 0.0
2018-Nov-01 09:30N 44°19' E 008°29'0 0.0
2018-Nov-01 09:02N 44°19' E 008°29'0 0.0
2018-Nov-01 08:59N 44°19' E 008°29'0 0.0
2018-Nov-01 08:29N 44°19' E 008°29'0 0.0
2018-Nov-01 08:02N 44°19' E 008°29'0 0.0
2018-Nov-01 08:00N 44°19' E 008°29'0 0.0
2018-Nov-01 07:29N 44°19' E 008°29'0 0.3
2018-Nov-01 07:03N 44°19' E 008°30'0 2.0
2018-Nov-01 07:00N 44°19' E 008°30'1 2.1
2018-Nov-01 06:30N 44°19' E 008°31'511.5
2018-Nov-01 06:03N 44°14' E 008°34'115.4
2018-Nov-01 06:00N 44°13' E 008°34'917.5
2018-Nov-01 05:30N 44°06' E 008°28'919.3
2018-Nov-01 05:03N 43°58' E 008°21'119.2
2018-Nov-01 05:00N 43°58' E 008°20'1019.1
2018-Nov-01 04:30N 43°50' E 008°12'818.7
2018-Nov-01 04:03N 43°44' E 008°04'118.9
2018-Nov-01 04:00N 43°44' E 008°03'1019.2
2018-Nov-01 03:30N 43°37' E 007°53'919.5
2018-Nov-01 03:03N 43°32' E 007°44'119.1
2018-Nov-01 03:00N 43°31' E 007°43'  
Track history (hours):
 
Tides and Currents Weather Stations Pressure Air Temp Water Temp Dewpoint Dewpoint Depression Visibility Wind Speed Wind Dir Waves Ship Positions

Costa Favolosa

Last reported at 2018-Nov-11 02:32 UTC. Time now 2018-Nov-13 07:30 UTC.
Position N 43°33' E 007°46'.

Length 291 m; draft 8.3 m.

Type: Ship. MMSI: 247311100.

Date/timePositionNaut miles runAvg speedWind from/ knotsBaromVisibWave heightAir tempDewpointWater temp
2018-Nov-11 02:32N 43°33' E 007°46'1020.7
2018-Nov-11 02:02N 43°26' E 007°35'1020.7
2018-Nov-11 01:32N 43°19' E 007°24'1020.8
2018-Nov-11 01:02N 43°12' E 007°13'1121.1
2018-Nov-11 00:32N 43°05' E 007°03'1121.0
2018-Nov-11 00:02N 42°58' E 006°52'20221.5
2018-Nov-10 14:40N 41°27' E 002°49'321.1
2018-Nov-10 14:32N 41°26' E 002°45'1021.2
2018-Nov-10 14:03N 41°21' E 002°33'1020.9
2018-Nov-10 13:33N 41°17' E 002°20'714.2
2018-Nov-10 13:02N 41°17' E 002°11'5 9.1
2018-Nov-10 12:32N 41°21' E 002°10'0 0.0
2018-Nov-10 12:02N 41°21' E 002°10'0 0.0
2018-Nov-10 11:32N 41°21' E 002°10'0 0.0
2018-Nov-10 11:02N 41°21' E 002°10'0 0.0
2018-Nov-10 10:32N 41°21' E 002°10'0 0.0
2018-Nov-10 10:03N 41°21' E 002°10'0 0.0
2018-Nov-10 09:32N 41°21' E 002°10'0 0.0
2018-Nov-10 09:02N 41°21' E 002°10'0 0.0
2018-Nov-10 08:31N 41°21' E 002°10'0 0.0
2018-Nov-10 07:58N 41°21' E 002°10'0 0.0
2018-Nov-10 07:31N 41°21' E 002°10'0 0.0
2018-Nov-10 07:01N 41°21' E 002°10'0 0.0
2018-Nov-10 06:33N 41°21' E 002°10'0 1.0
2018-Nov-10 06:02N 41°21' E 002°10'3 5.1
2018-Nov-10 05:32N 41°18' E 002°11'612.4
2018-Nov-10 05:02N 41°12' E 002°12'815.4
2018-Nov-10 04:32N 41°06' E 002°06'918.3
2018-Nov-10 04:02N 40°59' E 001°59'918.6
2018-Nov-10 03:32N 40°51' E 001°52'11914.3
2018-Nov-09 19:10N 39°30' W 000°03'213.6
2018-Nov-09 19:00N 39°29' W 000°06'613.5
2018-Nov-09 18:32N 39°27' W 000°13'4 7.3
2018-Nov-09 18:01N 39°27' W 000°18'0 0.2
2018-Nov-09 17:30N 39°28' W 000°18'0 0.0
2018-Nov-09 17:00N 39°28' W 000°18'0 0.0
2018-Nov-09 16:30N 39°28' W 000°18'0 0.0
2018-Nov-09 16:00N 39°28' W 000°18'0 0.0
2018-Nov-09 15:30N 39°28' W 000°18'0 0.0
2018-Nov-09 15:00N 39°28' W 000°18'0 0.0
2018-Nov-09 14:30N 39°28' W 000°18'0 0.0
2018-Nov-09 14:00N 39°28' W 000°18'0 0.0
2018-Nov-09 13:32N 39°28' W 000°18'0 0.0
2018-Nov-09 13:00N 39°28' W 000°18'0 0.0
2018-Nov-09 12:30N 39°28' W 000°18'0 0.0
2018-Nov-09 12:02N 39°28' W 000°18'0 0.0
2018-Nov-09 11:32N 39°28' W 000°18'0 0.0
2018-Nov-09 11:02N 39°28' W 000°18'0 0.1
2018-Nov-09 10:32N 39°27' W 000°18'1 1.4
2018-Nov-09 10:02N 39°27' W 000°18'3 5.7
2018-Nov-09 09:32N 39°25' W 000°15'8211.4
2018-Nov-09 02:22N 38°03' W 000°04'614.3
2018-Nov-09 01:57N 37°59' W 000°09'614.1
2018-Nov-09 01:32N 37°54' W 000°13'814.0
2018-Nov-09 00:59N 37°48' W 000°19'614.2
2018-Nov-09 00:32N 37°42' W 000°23'714.3
2018-Nov-09 00:02N 37°36' W 000°28'814.5
2018-Nov-08 23:31N 37°31' W 000°34'714.5
2018-Nov-08 23:02N 37°26' W 000°41'714.4
2018-Nov-08 22:32N 37°21' W 000°48'1214.3
2018-Nov-08 21:43N 37°14' W 000°59'314.3
2018-Nov-08 21:32N 37°12' W 001°01'40715.0
2018-Nov-07 18:25N 37°33' W 009°33'718.3
2018-Nov-07 18:02N 37°40' W 009°32'918.4
2018-Nov-07 17:32N 37°49' W 009°30'918.4
2018-Nov-07 17:02N 37°58' W 009°29'918.2
2018-Nov-07 16:32N 38°07' W 009°29'917.9
2018-Nov-07 16:03N 38°16' W 009°28'917.3
2018-Nov-07 15:32N 38°25' W 009°27'816.7
2018-Nov-07 15:02N 38°33' W 009°26'815.7
2018-Nov-07 14:32N 38°39' W 009°20'612.5
2018-Nov-07 14:02N 38°41' W 009°12'4 8.4
2018-Nov-07 13:32N 38°43' W 009°07'0 0.2
2018-Nov-07 13:00N 38°43' W 009°07'0 0.0
2018-Nov-07 12:32N 38°43' W 009°07'0 0.0
2018-Nov-07 12:02N 38°43' W 009°07'0 0.0
2018-Nov-07 11:33N 38°43' W 009°07'0 0.0
2018-Nov-07 11:00N 38°43' W 009°07'0 0.0
2018-Nov-07 10:31N 38°43' W 009°07'0 0.0
2018-Nov-07 10:02N 38°43' W 009°07'0 0.0
2018-Nov-07 09:32N 38°43' W 009°07'0 0.0
2018-Nov-07 09:02N 38°43' W 009°07'0 0.0
2018-Nov-07 08:32N 38°43' W 009°07'0 0.0
2018-Nov-07 08:02N 38°43' W 009°07'0 0.0
2018-Nov-07 07:31N 38°43' W 009°07'0 0.0
2018-Nov-07 07:01N 38°43' W 009°07'0 0.0
2018-Nov-07 06:30N 38°43' W 009°07'0 0.0
2018-Nov-07 05:59N 38°43' W 009°07'0 0.0
2018-Nov-07 05:31N 38°43' W 009°07'0 0.0
2018-Nov-07 05:02N 38°43' W 009°07'0 0.0
2018-Nov-07 04:30N 38°43' W 009°07'0 0.0
2018-Nov-06 23:29N 38°43' W 009°07'0 0.0
2018-Nov-06 23:00N 38°43' W 009°07'0 0.0
2018-Nov-06 22:00N 38°43' W 009°07'0 0.0
2018-Nov-06 21:30N 38°43' W 009°07'0 0.0
2018-Nov-06 21:03N 38°43' W 009°07'0 0.0
2018-Nov-06 21:00N 38°43' W 009°07'0 0.0
2018-Nov-06 20:29N 38°43' W 009°07'0 0.0
2018-Nov-06 20:01N 38°43' W 009°07'0 0.0
2018-Nov-06 19:55N 38°43' W 009°07'0 0.0
2018-Nov-06 19:27N 38°43' W 009°07'0 0.3
2018-Nov-06 19:03N 38°43' W 009°07'0 1.8
2018-Nov-06 18:59N 38°43' W 009°07'0 0.0
2018-Nov-06 18:30N 38°43' W 009°07'0 0.0
2018-Nov-06 18:01N 38°43' W 009°07'0 0.0
2018-Nov-06 17:58N 38°43' W 009°07'0 0.0
2018-Nov-06 17:30N 38°43' W 009°07'0 0.0
2018-Nov-06 17:02N 38°43' W 009°07'0 0.0
2018-Nov-06 16:59N 38°43' W 009°07'0 0.0
2018-Nov-06 16:30N 38°43' W 009°07'0 0.0
2018-Nov-06 16:00N 38°43' W 009°07'0 0.0
2018-Nov-06 15:30N 38°43' W 009°07'0 0.0
2018-Nov-06 15:02N 38°43' W 009°07'0 0.0
2018-Nov-06 14:59N 38°43' W 009°07'0 0.0
2018-Nov-06 14:29N 38°43' W 009°07'0 0.0
2018-Nov-06 14:02N 38°43' W 009°07'0 0.0
2018-Nov-06 13:59N 38°43' W 009°07'0 0.0
2018-Nov-06 13:29N 38°43' W 009°07'0 0.0
2018-Nov-06 13:01N 38°43' W 009°07'0 0.0
2018-Nov-06 12:58N 38°43' W 009°07'0 0.0
2018-Nov-06 12:29N 38°43' W 009°07'0 0.0
2018-Nov-06 12:02N 38°43' W 009°07'0 0.0
2018-Nov-06 11:59N 38°43' W 009°07'0 0.0
2018-Nov-06 11:28N 38°43' W 009°07'0 0.0
2018-Nov-06 11:01N 38°43' W 009°07'0 0.0
2018-Nov-06 10:58N 38°43' W 009°07'0 0.0
2018-Nov-06 10:28N 38°43' W 009°07'0 0.0
2018-Nov-06 10:03N 38°43' W 009°07'0 0.0
2018-Nov-06 10:00N 38°43' W 009°07'0 0.0
2018-Nov-06 09:29N 38°43' W 009°07'0 0.0
2018-Nov-06 09:03N 38°43' W 009°07'0 0.0
2018-Nov-06 09:00N 38°43' W 009°07'0 0.4
2018-Nov-06 08:30N 38°43' W 009°07'3 6.7
2018-Nov-06 08:03N 38°41' W 009°11'0 9.6
2018-Nov-06 08:00N 38°41' W 009°11'4 8.0
2018-Nov-06 07:30N 38°41' W 009°16'510.2
2018-Nov-06 07:03N 38°38' W 009°21'112.1
2018-Nov-06 07:00N 38°38' W 009°22'714.3
2018-Nov-06 06:31N 38°31' W 009°23'817.3
2018-Nov-06 06:03N 38°23' W 009°22'117.2
2018-Nov-06 06:01N 38°22' W 009°22'917.1
2018-Nov-06 05:31N 38°14' W 009°21'817.3
2018-Nov-06 05:03N 38°06' W 009°21'118.0
2018-Nov-06 05:01N 38°05' W 009°21'917.6
2018-Nov-06 04:31N 37°56' W 009°21'817.7
2018-Nov-06 04:03N 37°48' W 009°21'117.7
2018-Nov-06 04:01N 37°47' W 009°21'917.5
2018-Nov-06 03:29N 37°38' W 009°21'817.6
2018-Nov-06 03:02N 37°30' W 009°21'117.9
2018-Nov-06 02:59N 37°29' W 009°21'15116.4
2018-Nov-05 17:47N 36°34' W 006°25'616.0
2018-Nov-05 17:24N 36°33' W 006°17'1 3.7
2018-Nov-05 17:03N 36°32' W 006°17'0 0.1
2018-Nov-05 16:54N 36°32' W 006°17'0 0.0
2018-Nov-05 15:43N 36°32' W 006°17'0 0.0
2018-Nov-05 14:56N 36°32' W 006°17'0 0.0
2018-Nov-05 13:42N 36°32' W 006°17'0 0.0
2018-Nov-05 12:43N 36°32' W 006°17'0 0.0
2018-Nov-05 12:29N 36°32' W 006°17'0 0.0
2018-Nov-05 11:29N 36°32' W 006°17'0 0.0
2018-Nov-05 10:04N 36°32' W 006°17'0 0.0
2018-Nov-05 06:33N 36°32' W 006°17'0 0.0
2018-Nov-05 06:29N 36°32' W 006°17'0 0.7
2018-Nov-05 06:01N 36°32' W 006°17'0 2.0
2018-Nov-05 05:55N 36°32' W 006°17'3 5.3
2018-Nov-05 05:16N 36°33' W 006°21'415.7
2018-Nov-05 04:59N 36°31' W 006°26'265 7.3
2018-Nov-03 16:50N 37°14' W 000°59'619.9
2018-Nov-03 16:30N 37°18' W 000°53'919.4
2018-Nov-03 16:04N 37°25' W 000°46'119.2
2018-Nov-03 16:00N 37°25' W 000°45'1019.8
2018-Nov-03 15:30N 37°32' W 000°36'919.8
2018-Nov-03 15:03N 37°39' W 000°29'119.1
2018-Nov-03 15:00N 37°40' W 000°28'43119.2
2018-Nov-02 16:30N 43°21' E 005°19'1 2.1
2018-Nov-02 16:02N 43°21' E 005°20'0 0.0
2018-Nov-02 15:58N 43°21' E 005°20'0 0.0
2018-Nov-02 13:13N 43°21' E 005°20'0 0.0
2018-Nov-02 08:07N 43°21' E 005°20'0 0.0
2018-Nov-02 08:03N 43°21' E 005°20'0 0.1
2018-Nov-02 08:00N 43°21' E 005°20'1 1.0
2018-Nov-02 07:29N 43°21' E 005°19'3 7.7
2018-Nov-02 07:03N 43°19' E 005°15'0 7.5
2018-Nov-02 07:00N 43°19' E 005°15'4 8.4
2018-Nov-02 06:30N 43°16' E 005°11'612.8
2018-Nov-02 06:03N 43°10' E 005°10'112.8
2018-Nov-02 06:00N 43°10' E 005°09'7112.6
2018-Nov-02 00:24N 42°55' E 006°44'1014.4
2018-Nov-01 23:41N 43°01' E 006°55'314.4
2018-Nov-01 23:30N 43°03' E 006°58'714.2
2018-Nov-01 23:01N 43°07' E 007°05'014.1
2018-Nov-01 23:01N 43°08' E 007°05'714.0
2018-Nov-01 22:31N 43°12' E 007°12'614.2
2018-Nov-01 22:04N 43°16' E 007°19'114.1
2018-Nov-01 22:01N 43°17' E 007°20'714.1
2018-Nov-01 21:30N 43°21' E 007°27'614.2
2018-Nov-01 21:04N 43°26' E 007°34'114.5
2018-Nov-01 21:00N 43°26' E 007°34'714.5
2018-Nov-01 20:31N 43°31' E 007°42'715.1
2018-Nov-01 20:03N 43°35' E 007°49'115.1
2018-Nov-01 20:00N 43°36' E 007°50'815.5
2018-Nov-01 19:31N 43°41' E 007°58'715.4
2018-Nov-01 19:04N 43°45' E 008°05'115.4
2018-Nov-01 19:01N 43°46' E 008°06'815.4
2018-Nov-01 18:30N 43°51' E 008°14'715.3
2018-Nov-01 18:03N 43°56' E 008°20'115.6
2018-Nov-01 18:00N 43°57' E 008°21'715.1
2018-Nov-01 17:31N 44°03' E 008°26'614.3
2018-Nov-01 17:03N 44°09' E 008°30'114.0
2018-Nov-01 17:00N 44°10' E 008°31'713.0
2018-Nov-01 16:30N 44°16' E 008°33'4 8.3
2018-Nov-01 16:03N 44°19' E 008°30'0 3.7
2018-Nov-01 16:00N 44°19' E 008°29'0 0.2
2018-Nov-01 15:30N 44°19' E 008°29'0 0.0
2018-Nov-01 15:03N 44°19' E 008°29'0 0.0
2018-Nov-01 15:00N 44°19' E 008°29'0 0.0
2018-Nov-01 14:02N 44°19' E 008°29'0 0.0
2018-Nov-01 13:59N 44°19' E 008°29'0 0.0
2018-Nov-01 13:27N 44°19' E 008°29'0 0.0
2018-Nov-01 13:02N 44°19' E 008°29'0 0.0
2018-Nov-01 12:59N 44°19' E 008°29'0 0.0
2018-Nov-01 12:30N 44°19' E 008°29'0 0.0
2018-Nov-01 12:01N 44°19' E 008°29'0 0.0
2018-Nov-01 11:58N 44°19' E 008°29'0 0.0
2018-Nov-01 11:28N 44°19' E 008°29'0 0.0
2018-Nov-01 11:01N 44°19' E 008°29'0 0.0
2018-Nov-01 10:58N 44°19' E 008°29'0 0.0
2018-Nov-01 10:28N 44°19' E 008°29'0 0.0
2018-Nov-01 10:02N 44°19' E 008°29'0 0.0
2018-Nov-01 09:59N 44°19' E 008°29'0 0.0
2018-Nov-01 09:30N 44°19' E 008°29'0 0.0
2018-Nov-01 09:02N 44°19' E 008°29'0 0.0
2018-Nov-01 08:59N 44°19' E 008°29'0 0.0
2018-Nov-01 08:29N 44°19' E 008°29'0 0.0
2018-Nov-01 08:02N 44°19' E 008°29'0 0.0
2018-Nov-01 08:00N 44°19' E 008°29'0 0.0
2018-Nov-01 07:29N 44°19' E 008°29'0 0.3
2018-Nov-01 07:03N 44°19' E 008°30'0 2.0
2018-Nov-01 07:00N 44°19' E 008°30'1 2.1
2018-Nov-01 06:30N 44°19' E 008°31'511.5
2018-Nov-01 06:03N 44°14' E 008°34'115.4
2018-Nov-01 06:00N 44°13' E 008°34'917.5
2018-Nov-01 05:30N 44°06' E 008°28'919.3
2018-Nov-01 05:03N 43°58' E 008°21'119.2
2018-Nov-01 05:00N 43°58' E 008°20'1019.1
2018-Nov-01 04:30N 43°50' E 008°12'818.7
2018-Nov-01 04:03N 43°44' E 008°04'118.9
2018-Nov-01 04:00N 43°44' E 008°03'1019.2
2018-Nov-01 03:30N 43°37' E 007°53'919.5
2018-Nov-01 03:03N 43°32' E 007°44'119.1
2018-Nov-01 03:00N 43°31' E 007°43'  

Dump ship's entire track history